Flight Track Log - Related Links

Times and Time Zones

All times are in EDT time to prevent confusion due to time zone crossing. See the UPS1303 flight status page for this flight to view local times or setup timezone preferences in your user account.

Time Position Orientation Groundspeed Altitude Reporting Facility
EDT Latitude Longitude Course Direction KTS MPH feet Rate Location/Type
11:23PM 33.6470 -84.4250 270° West 160 184 900  Level FlightAware
11:24PM 33.6480 -84.4460 273° West 147 169 2,300 2,550 Climbing FlightAware
11:24PM 33.6490 -84.4590 275° West 175 201 2,600 1,467 Climbing FlightAware
11:24PM 33.6550 -84.4930 282° West 235 270 3,400 2,618 Climbing FlightAware
11:25PM 33.6600 -84.5260 280° West 245 282 5,000 4,036 Climbing FlightAware
11:25PM 33.6670 -84.5670 282° West 246 283 7,100 3,733 Climbing FlightAware
11:26PM 33.6760 -84.5830 304° West 254 292 7,800 3,360 Climbing FlightAware
11:26PM 33.6870 -84.5910 329° Northwest 257 296 8,500 3,600 Climbing FlightAware
11:26PM 33.7030 -84.5960 345° North 264 304 9,300 1,733 Climbing FlightAware
11:27PM 33.7400 -84.5930 North 266 306 9,800 655 Climbing FlightAware
11:27PM 33.7730 -84.5900 North 268 308 9,900 1,029 Climbing FlightAware
11:28PM 33.8300 -84.5870 North 319 367 11,000 2,047 Climbing FlightAware
11:28PM 33.8960 -84.5870 360° North 354 407 12,800 2,775 Climbing FlightAware
11:29PM 33.9620 -84.5880 359° North 372 428 14,700 2,965 Climbing FlightAware
11:30PM 34.0450 -84.5900 359° North 389 448 17,000 2,965 Climbing FlightAware
11:30PM 34.1180 -84.5910 359° North 402 463 18,900 2,769 Climbing FlightAware
11:31PM 34.1672 -84.5922 359° North 411 473 20,000 2,618 Climbing FlightAware ADS-B
11:31PM 34.2253 -84.5931 359° North 418 481 21,300 2,483 Climbing FlightAware ADS-B
11:32PM 34.2794 -84.5946 359° North 423 487 22,400 2,286 Climbing FlightAware ADS-B
11:32PM 34.3064 -84.5992 352° North 425 489 22,900 2,455 Climbing FlightAware ADS-B
11:33PM 34.3651 -84.6142 348° North 429 494 24,200 2,262 Climbing FlightAware ADS-B
11:33PM 34.4265 -84.6289 349° North 440 506 25,200 2,459 Climbing FlightAware ADS-B
11:34PM 34.4863 -84.6438 348° North 435 501 26,700 3,000 Climbing FlightAware ADS-B
11:34PM 34.5489 -84.6593 348° North 426 490 28,300 2,857 Climbing FlightAware ADS-B
11:35PM 34.6081 -84.6740 348° North 420 483 29,700 1,645 Climbing FlightAware ADS-B
11:35PM 34.6667 -84.6884 349° North 420 483 30,000 295 Climbing FlightAware ADS-B
11:36PM 34.7239 -84.7027 348° North 419 482 30,000  Level FlightAware ADS-B
11:36PM 34.7816 -84.7169 349° North 427 491 30,000  Level FlightAware ADS-B
11:37PM 34.8462 -84.7324 349° North 449 517 30,000  Level FlightAware ADS-B
11:37PM 34.9082 -84.7476 349° North 453 521 30,000  Level FlightAware ADS-B
11:38PM 34.9774 -84.7649 348° North 450 518 30,000  Level FlightAware ADS-B
11:38PM 35.0563 -84.7849 348° North 451 519 30,000  Level FlightAware ADS-B
11:39PM 35.1649 -84.8122 348° North 452 520 30,000  Level FlightAware ADS-B
11:40PM 35.2267 -84.8275 349° North 452 520 30,000  Level FlightAware ADS-B
11:40PM 35.2883 -84.8431 348° North 450 518 30,000  Level FlightAware ADS-B
11:41PM 35.3504 -84.8588 348° North 451 519 30,000  Level FlightAware ADS-B
11:41PM 35.4146 -84.8749 348° North 452 520 30,000  Level FlightAware ADS-B
11:42PM 35.4765 -84.8907 348° North 453 521 30,000  Level FlightAware ADS-B
11:42PM 35.5386 -84.9064 348° North 455 524 30,000  Level FlightAware ADS-B
11:43PM 35.6006 -84.9219 349° North 455 524 30,000  Level FlightAware ADS-B
11:43PM 35.6619 -84.9400 347° North 453 521 30,000  Level FlightAware ADS-B
11:44PM 35.7231 -84.9597 345° North 454 522 30,000  Level FlightAware ADS-B
11:44PM 35.7856 -84.9790 346° North 454 522 30,000  Level FlightAware ADS-B
11:44PM 35.8012 -84.9827 349° North 456 525 30,000  Level FlightAware ADS-B
11:45PM 35.8636 -84.9969 350° North 456 525 30,000  Level FlightAware ADS-B
11:45PM 35.9259 -85.0116 349° North 457 526 30,000  Level FlightAware ADS-B
11:46PM 35.9897 -85.0265 349° North 457 526 30,000  Level FlightAware ADS-B
11:47PM 36.0522 -85.0410 349° North 456 525 30,000  Level FlightAware ADS-B
11:47PM 36.1154 -85.0558 349° North 455 524 30,000  Level FlightAware ADS-B
11:48PM 36.1810 -85.0712 349° North 454 522 30,000  Level FlightAware ADS-B
11:48PM 36.2434 -85.0860 349° North 451 519 30,000  Level FlightAware ADS-B
11:49PM 36.3055 -85.1006 349° North 451 519 30,000  Level FlightAware ADS-B
11:49PM 36.3678 -85.1152 349° North 449 517 30,000  Level FlightAware ADS-B
11:50PM 36.4299 -85.1298 349° North 449 517 30,000  Level FlightAware ADS-B
11:50PM 36.4917 -85.1444 349° North 450 518 30,000 -105 Level FlightAware ADS-B
11:51PM 36.5453 -85.1567 350° North 453 521 29,900 -638 Descending FlightAware ADS-B
11:51PM 36.5902 -85.1612 355° North 460 529 29,500 -1,111 Descending FlightAware ADS-B
11:51PM 36.6027 -85.1608 North 464 534 29,400 -833 Descending FlightAware ADS-B
11:51PM 36.6681 -85.1495 North 471 542 29,000 -938 Descending FlightAware ADS-B
11:52PM 36.7407 -85.1352 North 466 536 28,400 -1,015 Descending FlightAware ADS-B
11:53PM 36.8058 -85.1227 North 463 533 27,900 -984 Descending FlightAware ADS-B
11:53PM 36.8694 -85.1102 North 461 531 27,400 -1,000 Descending FlightAware ADS-B
11:54PM 36.9329 -85.0975 North 448 516 26,900 -1,905 Descending FlightAware ADS-B
11:54PM 36.9970 -85.0851 North 433 498 25,400 -3,938 Descending FlightAware ADS-B
11:55PM 37.0598 -85.0728 North 453 521 22,700 -4,588 Descending FlightAware ADS-B
11:55PM 37.1383 -85.0567 North 456 525 20,200 -2,644 Descending FlightAware ADS-B
11:58PM 37.4520 -84.9940 North 403 464 13,800 -2,460 Descending FlightAware
11:59PM 37.5120 -84.9820 North 372 428 12,000 -1,200 Descending FlightAware
11:59PM 37.5950 -84.9670 North 372 428 12,000  Level FlightAware
11:59PM 37.5950 -84.9670 North 372 428 12,000  Level FlightAware
12:00AM 37.6530 -84.9570 North 372 428 12,000  Level FlightAware
12:00AM 37.6530 -84.9570 North 372 428 12,000 -1,093 Level FlightAware
12:04AM 37.8510 -85.0480 340° North 260 299 7,900 -1,093 Descending FlightAware
12:04AM 37.8510 -85.0480 340° North 260 299 7,900  Level FlightAware
12:04AM 37.8480 -85.0860 264° West 260 299 7,900 -1,067 Level FlightAware
12:07AM 37.8270 -85.3200 264° West 258 297 4,700 -1,236 Descending FlightAware
12:07AM 37.8260 -85.3310 263° West 261 300 4,500 -1,333 Descending FlightAware
12:08AM 37.8210 -85.3830 263° West 258 297 3,700 -1,333 Descending FlightAware
12:08AM 37.8190 -85.4030 263° West 254 292 3,500 -343 Descending FlightAware
12:08AM 37.8150 -85.4360 261° West 254 292 3,500 -336 Level FlightAware
12:10AM 37.7880 -85.5520 254° West 198 228 2,800 -382 Descending FlightAware
12:10AM 37.7840 -85.5600 238° Southwest 195 224 2,800  Level FlightAware
12:10AM 37.7760 -85.5860 249° West 195 224 2,800  Level FlightAware
12:12AM 37.8650 -85.6210 343° North 156 180 2,800  Level FlightAware
12:13AM 37.8790 -85.6270 341° North 156 180 2,800  Level FlightAware
12:13AM 37.9080 -85.6360 346° North 154 177 2,800  Level FlightAware
12:14AM 37.9410 -85.6480 344° North 158 182 2,800 80 Level FlightAware
12:15AM 37.9630 -85.6550 346° North 158 182 2,900 109 Climbing FlightAware
12:15AM 37.9800 -85.6610 344° North 159 183 2,900  Level FlightAware
12:16AM 38.0010 -85.6680 345° North 158 182 2,900  Level FlightAware
12:16AM 38.0230 -85.6750 346° North 154 177 2,900 -109 Level FlightAware
12:16AM 38.0400 -85.6810 344° North 154 177 2,800 -360 Descending FlightAware
12:17AM 38.0560 -85.6870 344° North 154 177 2,600 -655 Descending FlightAware
12:17AM 38.0760 -85.6930 347° North 136 157 2,200 -800 Descending FlightAware
12:18AM 38.0860 -85.6970 343° North 138 159 2,000 -667 Descending FlightAware
12:18AM 38.1020 -85.7020 346° North 136 157 1,700 -764 Descending FlightAware
12:19AM 38.1180 -85.7080 344° North 137 158 1,300 -764 Descending FlightAware
12:19AM 38.1370 -85.7140 346° North 136 157 1,000 -700 Descending FlightAware
12:20AM 38.1560 -85.7210 344° North 134 154 600 -764 Descending FlightAware
12:20AM 38.1700 -85.7250 347° North 140 161 300 -720 Descending FlightAware

Login

Don't have an account? Register now (free) for customized features, flight alerts, and more!